Time;durP1;ratioP1;P1;durP2;ratioP2;P2;SDS_P1;SDS_P2;PMS_P1;PMS_P2;Temp;Humidity;BMP_temperature;BMP_pressure;BME280_temperature;BME280_humidity;BME280_pressure;Samples;Min_cycle;Max_cycle;Signal;HPM_P1;HPM_P2
2022/06/08 00:01:10;;;;;;;;;;;;;;;16.27;84.95;94817.56;5097171;28;974;-53
2022/06/08 00:03:38;;;;;;;;;;;;;;;16.18;85.09;94825.00;5096692;28;1024;-53
2022/06/08 00:06:06;;;;;;;;;;;;;;;16.27;85.22;94820.28;5096721;28;1906;-53
2022/06/08 00:08:33;;;;;;;;;;;;;;;16.31;84.59;94822.34;5096653;28;1036;-53
2022/06/08 00:10:59;;;;;;;;;;;;;;;16.39;84.61;94826.75;5097020;28;1040;-52
2022/06/08 00:13:26;;;;;;;;;;;;;;;16.30;84.63;94827.97;5094859;28;2594;-52
2022/06/08 00:15:54;;;;;;;;;;;;;;;16.27;84.65;94823.78;5096933;28;1025;-53
2022/06/08 00:18:20;;;;;;;;;;;;;;;15.98;85.24;94822.28;5096696;28;1095;-52
2022/06/08 00:20:47;;;;;;;;;;;;;;;15.80;85.70;94815.59;5095443;28;1059;-52
2022/06/08 00:23:14;;;;;;;;;;;;;;;15.65;85.86;94811.31;5095365;28;1194;-52
2022/06/08 00:25:41;;;;;;;;;;;;;;;15.81;85.84;94813.72;5096034;28;1993;-52
2022/06/08 00:28:07;;;;;;;;;;;;;;;15.99;85.01;94816.69;5096362;28;1053;-53
2022/06/08 00:30:35;;;;;;;;;;;;;;;15.95;85.27;94819.97;5095158;28;1556;-52
2022/06/08 00:33:01;;;;;;;;;;;;;;;15.76;85.18;94814.34;5096194;28;1129;-53
2022/06/08 00:35:28;;;;;;;;;;;;;;;15.65;85.25;94811.31;5096448;28;1039;-52
2022/06/08 00:37:54;;;;;;;;;;;;;;;15.64;85.83;94813.19;5096375;28;1024;-52
2022/06/08 00:40:22;;;;;;;;;;;;;;;15.76;85.46;94803.56;5096104;28;1020;-52
2022/06/08 00:42:49;;;;;;;;;;;;;;;15.81;85.66;94806.44;5095914;28;1137;-52
2022/06/08 00:45:17;;;;;;;;;;;;;;;15.79;85.50;94805.00;5095878;28;1914;-52
2022/06/08 00:48:04;;;;;;;;;;;;;;;15.60;85.60;94803.84;5096359;28;1467;-52
2022/06/08 00:50:33;;;;;;;;;;;;;;;15.56;86.48;94806.13;5095787;28;1235;-52
2022/06/08 00:53:00;;;;;;;;;;;;;;;15.65;85.53;94811.31;5095742;28;1020;-52
2022/06/08 00:55:27;;;;;;;;;;;;;;;15.65;85.68;94801.41;5095355;28;1228;-52
2022/06/08 00:57:59;;;;;;;;;;;;;;;15.63;85.52;94803.44;5095703;28;961;-52
2022/06/08 01:00:30;;;;;;;;;;;;;;;15.54;85.52;94815.44;5095985;28;1035;-52
2022/06/08 01:02:58;;;;;;;;;;;;;;;15.31;86.60;94805.78;5095682;28;1024;-52
2022/06/08 01:05:25;;;;;;;;;;;;;;;15.16;86.36;94818.56;5094253;28;1914;-52
2022/06/08 01:07:53;;;;;;;;;;;;;;;15.16;86.37;94813.16;5096088;28;1070;-52
2022/06/08 01:10:27;;;;;;;;;;;;;;;15.40;87.00;94810.00;5095746;28;1040;-52
2022/06/08 01:12:54;;;;;;;;;;;;;;;15.59;85.82;94812.97;5094138;28;1067;-52
2022/06/08 01:15:22;;;;;;;;;;;;;;;15.84;85.19;94801.69;5095536;28;1095;-52
2022/06/08 01:17:49;;;;;;;;;;;;;;;15.96;85.12;94809.00;5094376;28;1012;-52
2022/06/08 01:20:15;;;;;;;;;;;;;;;16.06;84.44;94797.81;5095353;28;1029;-52
2022/06/08 01:22:41;;;;;;;;;;;;;;;16.12;85.01;94807.78;5095055;28;1005;-52
2022/06/08 01:25:09;;;;;;;;;;;;;;;15.96;85.25;94802.78;5094814;28;1912;-54
2022/06/08 01:27:38;;;;;;;;;;;;;;;15.73;86.09;94798.56;5095208;28;1067;-52
2022/06/08 01:30:10;;;;;;;;;;;;;;;15.82;84.96;94801.88;5095088;28;1086;-52
2022/06/08 01:32:41;;;;;;;;;;;;;;;15.90;85.19;94795.50;5094783;28;1064;-52
2022/06/08 01:35:36;;;;;;;;;;;;;;;15.87;85.69;94793.22;5094290;28;1068;-53
2022/06/08 01:38:09;;;;;;;;;;;;;;;15.65;86.02;94801.41;5078060;28;1924;-53
2022/06/08 01:40:46;;;;;;;;;;;;;;;15.41;87.39;94805.44;5095351;28;1716;-52
2022/06/08 01:43:31;;;;;;;;;;;;;;;15.46;86.59;94802.97;5077103;28;1433;-52
2022/06/08 01:46:02;;;;;;;;;;;;;;;15.57;86.55;94796.16;5095080;28;1991;-52
2022/06/08 01:48:37;;;;;;;;;;;;;;;15.39;86.45;94794.84;5094886;28;924;-52
2022/06/08 01:51:03;;;;;;;;;;;;;;;15.46;86.75;94797.59;5094646;28;1115;-52
2022/06/08 01:53:41;;;;;;;;;;;;;;;15.54;86.73;94812.75;5094305;28;1056;-52
2022/06/08 01:56:28;;;;;;;;;;;;;;;15.55;86.66;94812.53;5094313;28;1405;-52
2022/06/08 01:59:01;;;;;;;;;;;;;;;15.60;86.06;94814.63;5081251;28;1524;-52
2022/06/08 02:01:45;;;;;;;;;;;;;;;15.42;86.22;94810.63;5094839;28;1017;-52
2022/06/08 02:04:30;;;;;;;;;;;;;;;15.29;87.02;94809.69;5094313;28;1983;-52
2022/06/08 02:07:12;;;;;;;;;;;;;;;15.23;86.84;94814.00;5094348;28;1205;-52
2022/06/08 02:09:44;;;;;;;;;;;;;;;15.05;87.54;94803.75;5093304;28;1084;-52
2022/06/08 02:12:11;;;;;;;;;;;;;;;14.96;87.51;94796.88;5094112;28;1624;-52
2022/06/08 02:14:48;;;;;;;;;;;;;;;14.72;88.24;94798.13;5094399;28;1095;-53
2022/06/08 02:17:26;;;;;;;;;;;;;;;14.87;88.14;94798.03;5094290;28;1048;-53
2022/06/08 02:19:59;;;;;;;;;;;;;;;15.08;86.66;94787.22;5094410;28;1043;-53
2022/06/08 02:22:29;;;;;;;;;;;;;;;14.97;86.62;94793.16;5094000;28;1072;-52
2022/06/08 02:25:22;;;;;;;;;;;;;;;14.86;87.49;94797.22;5094491;28;1914;-53
2022/06/08 02:28:08;;;;;;;;;;;;;;;14.81;86.88;94795.09;5090876;28;1369;-52
2022/06/08 02:30:41;;;;;;;;;;;;;;;14.62;87.36;94788.53;5094040;28;1107;-53
2022/06/08 02:35:54;;;;;;;;;;;;;;;14.78;86.96;94786.63;5093846;28;1087;-53
2022/06/08 02:38:23;;;;;;;;;;;;;;;14.76;86.65;94785.94;5094095;28;1055;-53
2022/06/08 02:40:52;;;;;;;;;;;;;;;14.82;87.15;94787.88;5093638;28;1051;-52
2022/06/08 02:43:38;;;;;;;;;;;;;;;14.81;86.91;94784.34;5093690;28;1087;-52
2022/06/08 02:46:23;;;;;;;;;;;;;;;14.79;86.94;94789.09;5082109;28;1910;-52
2022/06/08 02:48:50;;;;;;;;;;;;;;;14.76;86.39;94792.19;5093773;28;1092;-52
2022/06/08 02:51:16;;;;;;;;;;;;;;;14.75;86.68;94789.69;5093848;28;1035;-52
2022/06/08 02:53:47;;;;;;;;;;;;;;;14.71;86.87;94785.72;5093279;28;1180;-52
2022/06/08 02:56:22;;;;;;;;;;;;;;;14.76;86.48;94784.13;5093379;28;1124;-52
2022/06/08 02:59:06;;;;;;;;;;;;;;;14.72;87.10;94799.00;5093630;28;1029;-52
2022/06/08 03:01:40;;;;;;;;;;;;;;;14.73;87.15;94797.94;5093672;28;1005;-52
2022/06/08 03:04:10;;;;;;;;;;;;;;;14.53;86.31;94810.38;5093337;28;1902;-52
2022/06/08 03:06:42;;;;;;;;;;;;;;;14.53;85.96;94805.00;5106713;28;1205;-52
2022/06/08 03:09:11;;;;;;;;;;;;;;;14.44;86.85;94812.38;5113938;28;1012;-52
2022/06/08 03:11:41;;;;;;;;;;;;;;;14.43;87.60;94821.47;5113754;28;950;-52
2022/06/08 03:14:11;;;;;;;;;;;;;;;14.53;87.52;94816.59;5093351;28;1090;-51
2022/06/08 03:16:39;;;;;;;;;;;;;;;14.73;88.06;94813.28;5092799;28;1067;-52
2022/06/08 03:19:06;;;;;;;;;;;;;;;14.79;86.05;94824.06;5093455;28;1040;-52
2022/06/08 03:21:32;;;;;;;;;;;;;;;14.75;85.14;94819.28;5093101;28;1020;-52
2022/06/08 03:23:59;;;;;;;;;;;;;;;14.71;86.58;94828.78;5092909;28;1099;-51
2022/06/08 03:26:27;;;;;;;;;;;;;;;14.79;87.09;94828.63;5093328;28;1030;-52
2022/06/08 03:28:54;;;;;;;;;;;;;;;14.88;86.97;94816.69;5093338;28;1087;-52
2022/06/08 03:31:20;;;;;;;;;;;;;;;15.06;87.01;94815.38;5092373;28;1063;-51
2022/06/08 03:33:46;;;;;;;;;;;;;;;15.12;86.73;94815.41;5091616;28;1107;-52
2022/06/08 03:36:13;;;;;;;;;;;;;;;14.94;87.00;94815.06;5093531;28;1024;-52
2022/06/08 03:38:42;;;;;;;;;;;;;;;14.98;88.04;94817.16;5093227;28;1040;-52
2022/06/08 03:41:10;;;;;;;;;;;;;;;15.25;86.73;94816.50;5093109;28;1024;-52
2022/06/08 03:43:37;;;;;;;;;;;;;;;15.46;86.61;94810.19;5092710;28;1119;-52
2022/06/08 03:46:05;;;;;;;;;;;;;;;15.50;86.62;94811.47;5093082;28;1902;-52
2022/06/08 03:48:31;;;;;;;;;;;;;;;15.62;86.37;94816.09;5091932;28;988;-52
2022/06/08 03:50:58;;;;;;;;;;;;;;;15.73;85.89;94817.41;5093061;28;1115;-52
2022/06/08 03:53:27;;;;;;;;;;;;;;;15.75;86.13;94818.03;5092302;28;1266;-52
2022/06/08 03:55:54;;;;;;;;;;;;;;;15.80;85.98;94817.44;5092953;28;1544;-53
2022/06/08 03:58:21;;;;;;;;;;;;;;;15.75;85.99;94817.22;5092885;28;1064;-51
2022/06/08 04:00:48;;;;;;;;;;;;;;;15.87;87.25;94821.00;5093375;28;1044;-51
2022/06/08 04:03:14;;;;;;;;;;;;;;;15.90;87.42;94819.78;5092672;28;1134;-52
2022/06/08 04:05:41;;;;;;;;;;;;;;;15.99;87.82;94813.13;5092861;28;1901;-52
2022/06/08 04:08:09;;;;;;;;;;;;;;;16.08;86.68;94817.31;5092808;28;953;-51
2022/06/08 04:10:35;;;;;;;;;;;;;;;16.36;85.84;94825.28;5092814;28;1102;-52
2022/06/08 04:13:01;;;;;;;;;;;;;;;16.62;84.41;94828.19;5092840;28;1049;-52
2022/06/08 04:15:42;;;;;;;;;;;;;;;16.70;83.80;94831.53;5093079;28;1004;-51
2022/06/08 04:18:20;;;;;;;;;;;;;;;16.69;83.04;94829.03;5092825;28;1146;-51
2022/06/08 04:20:48;;;;;;;;;;;;;;;16.58;82.37;94834.03;5092852;28;1063;-51
2022/06/08 04:23:14;;;;;;;;;;;;;;;16.55;82.51;94825.50;5092489;28;1024;-52
2022/06/08 04:25:41;;;;;;;;;;;;;;;16.64;84.30;94826.97;5092683;28;1988;-52
2022/06/08 04:28:07;;;;;;;;;;;;;;;16.59;83.40;94827.56;5095219;28;1040;-52
2022/06/08 04:30:34;;;;;;;;;;;;;;;16.76;83.22;94829.88;5096435;28;1098;-52
2022/06/08 04:33:00;;;;;;;;;;;;;;;16.82;83.18;94834.47;5095049;28;981;-52
2022/06/08 04:35:27;;;;;;;;;;;;;;;16.97;82.70;94824.28;5096367;28;1033;-53
2022/06/08 04:37:53;;;;;;;;;;;;;;;17.09;82.09;94824.50;5096422;28;1036;-52
2022/06/08 04:40:21;;;;;;;;;;;;;;;17.14;82.29;94831.97;5096240;28;1056;-52
2022/06/08 04:42:47;;;;;;;;;;;;;;;17.36;81.42;94819.06;5095855;28;1016;-53
2022/06/08 04:45:14;;;;;;;;;;;;;;;17.54;80.64;94821.09;5094934;28;1897;-52
2022/06/08 04:47:40;;;;;;;;;;;;;;;17.50;81.50;94817.97;5095957;28;1016;-52
2022/06/08 04:50:08;;;;;;;;;;;;;;;17.76;81.01;94813.53;5095106;28;1483;-52
2022/06/08 04:52:35;;;;;;;;;;;;;;;17.84;79.67;94818.72;5095729;28;1067;-52
2022/06/08 04:55:01;;;;;;;;;;;;;;;17.80;78.49;94822.88;5095450;28;1228;-52
2022/06/08 04:57:30;;;;;;;;;;;;;;;17.70;78.29;94827.88;5096182;28;1000;-52
2022/06/08 04:59:56;;;;;;;;;;;;;;;17.69;79.24;94824.38;5095793;28;1048;-52
2022/06/08 05:05:07;;;;;;;;;;;;;;;18.03;78.38;94833.22;5095495;28;1897;-52
2022/06/08 05:07:35;;;;;;;;;;;;;;;18.13;79.12;94827.34;5095704;28;1083;-52
2022/06/08 05:10:01;;;;;;;;;;;;;;;18.14;78.86;94827.13;5095496;28;1211;-53
2022/06/08 05:12:27;;;;;;;;;;;;;;;18.29;77.15;94818.72;5095602;28;1051;-52
2022/06/08 05:14:54;;;;;;;;;;;;;;;18.63;77.30;94823.91;5094200;28;1111;-52
2022/06/08 05:17:20;;;;;;;;;;;;;;;18.92;76.53;94828.72;5094424;28;1060;-52
2022/06/08 05:19:46;;;;;;;;;;;;;;;18.98;76.38;94820.78;5095265;28;1124;-52
2022/06/08 05:22:12;;;;;;;;;;;;;;;18.85;76.85;94817.09;5095920;28;1049;-52
2022/06/08 05:24:38;;;;;;;;;;;;;;;18.94;77.60;94817.66;5094578;28;1910;-52
2022/06/08 05:27:04;;;;;;;;;;;;;;;19.10;76.12;94810.84;5095765;28;1000;-52
2022/06/08 05:29:31;;;;;;;;;;;;;;;19.19;75.96;94812.22;5094982;28;1072;-52
2022/06/08 05:31:57;;;;;;;;;;;;;;;19.31;72.86;94804.19;5095261;28;1182;-52
2022/06/08 05:34:24;;;;;;;;;;;;;;;19.52;73.54;94811.09;5094736;28;1040;-53
2022/06/08 05:36:50;;;;;;;;;;;;;;;19.99;72.85;94814.09;5095233;28;1104;-53
2022/06/08 05:39:16;;;;;;;;;;;;;;;20.25;72.66;94821.06;5093939;28;1045;-53
2022/06/08 05:41:43;;;;;;;;;;;;;;;20.45;72.36;94818.09;5095068;28;1083;-53
2022/06/08 05:44:09;;;;;;;;;;;;;;;20.51;72.78;94819.06;5093284;28;1984;-53
2022/06/08 05:46:35;;;;;;;;;;;;;;;20.55;72.47;94824.84;5094003;28;1319;-52
2022/06/08 05:49:02;;;;;;;;;;;;;;;20.57;71.38;94826.25;5094791;28;985;-52
2022/06/08 05:51:28;;;;;;;;;;;;;;;20.73;71.75;94834.84;5095179;28;1027;-53
2022/06/08 05:53:55;;;;;;;;;;;;;;;20.69;72.08;94829.03;5094161;28;1080;-52
2022/06/08 05:56:21;;;;;;;;;;;;;;;20.86;69.67;94838.19;5093454;28;1083;-52
2022/06/08 05:58:47;;;;;;;;;;;;;;;21.14;70.12;94844.84;5094946;28;1024;-51
2022/06/08 06:01:13;;;;;;;;;;;;;;;20.74;71.39;94837.34;5095160;28;969;-51
2022/06/08 06:03:40;;;;;;;;;;;;;;;20.60;71.57;94833.16;5094641;28;1030;-51
2022/06/08 06:06:06;;;;;;;;;;;;;;;20.40;72.08;94839.66;5094443;28;1908;-51
2022/06/08 06:08:32;;;;;;;;;;;;;;;20.41;72.34;94841.34;5093262;28;1008;-51
2022/06/08 06:10:59;;;;;;;;;;;;;;;20.24;73.17;94837.56;5094382;28;1048;-51
2022/06/08 06:13:28;;;;;;;;;;;;;;;20.13;74.40;94833.78;5093273;28;1033;-51
2022/06/08 06:15:57;;;;;;;;;;;;;;;19.96;73.75;94838.16;5092906;28;1500;-51
2022/06/08 06:18:25;;;;;;;;;;;;;;;19.83;74.99;94836.44;5094314;28;1064;-51
2022/06/08 06:20:54;;;;;;;;;;;;;;;19.74;75.44;94843.19;5094222;28;1012;-51
2022/06/08 06:23:21;;;;;;;;;;;;;;;19.69;75.61;94841.97;5092727;28;1546;-51
2022/06/08 06:25:48;;;;;;;;;;;;;;;19.68;75.03;94839.47;5092855;28;1922;-51
2022/06/08 06:28:15;;;;;;;;;;;;;;;19.86;74.37;94835.97;5093378;28;1022;-51
2022/06/08 06:30:43;;;;;;;;;;;;;;;20.05;74.81;94834.91;5093041;28;1028;-50
2022/06/08 06:33:10;;;;;;;;;;;;;;;20.11;75.09;94829.59;5075972;28;1432;-53
2022/06/08 06:35:37;;;;;;;;;;;;;;;19.91;75.44;94825.25;5094165;28;1048;-52
2022/06/08 06:38:06;;;;;;;;;;;;;;;19.80;73.84;94826.03;5076220;28;942;-50
2022/06/08 06:40:35;;;;;;;;;;;;;;;19.79;74.88;94827.09;5075977;28;1555;-50
2022/06/08 06:43:03;;;;;;;;;;;;;;;19.85;75.89;94829.72;5093899;28;1672;-51
2022/06/08 06:45:29;;;;;;;;;;;;;;;20.16;73.53;94830.56;5092412;28;4158;-59
2022/06/08 06:47:55;;;;;;;;;;;;;;;20.37;73.32;94829.25;5094116;28;1550;-52
2022/06/08 06:50:25;;;;;;;;;;;;;;;20.50;71.87;94830.13;5093558;28;1028;-50
2022/06/08 06:52:52;;;;;;;;;;;;;;;20.50;73.06;94832.84;5091252;28;1516;-50
2022/06/08 06:55:24;;;;;;;;;;;;;;;20.69;71.41;94825.50;5092777;28;1321;-54
2022/06/08 06:57:50;;;;;;;;;;;;;;;20.74;69.14;94826.47;5093643;28;1029;-51
2022/06/08 07:00:17;;;;;;;;;;;;;;;20.75;70.03;94822.69;5093705;28;1098;-50
2022/06/08 07:02:44;;;;;;;;;;;;;;;20.56;72.16;94826.50;5093471;28;1088;-50
2022/06/08 07:05:18;;;;;;;;;;;;;;;20.39;72.93;94827.13;5094629;28;1986;-50
2022/06/08 07:07:44;;;;;;;;;;;;;;;20.51;72.85;94823.63;5113929;28;1194;-50
2022/06/08 07:10:10;;;;;;;;;;;;;;;20.59;74.27;94821.44;5112636;28;1112;-50
2022/06/08 07:12:36;;;;;;;;;;;;;;;20.57;72.38;94828.16;5113305;28;1003;-50
2022/06/08 07:15:03;;;;;;;;;;;;;;;20.60;70.56;94825.84;5093825;28;1044;-50
2022/06/08 07:17:29;;;;;;;;;;;;;;;20.58;69.90;94825.22;5093387;28;1007;-50
2022/06/08 07:19:55;;;;;;;;;;;;;;;20.73;70.55;94821.25;5093361;28;1048;-50
2022/06/08 07:22:21;;;;;;;;;;;;;;;20.80;69.20;94822.00;5093026;28;1087;-50
2022/06/08 07:24:47;;;;;;;;;;;;;;;20.89;69.80;94825.19;5091464;28;1910;-50
2022/06/08 07:27:13;;;;;;;;;;;;;;;20.98;71.58;94837.38;5092316;28;1048;-50
2022/06/08 07:29:39;;;;;;;;;;;;;;;20.83;72.10;94827.78;5093207;28;1020;-50
2022/06/08 07:32:06;;;;;;;;;;;;;;;20.81;73.66;94832.63;5093401;28;965;-50
2022/06/08 07:34:32;;;;;;;;;;;;;;;20.80;72.44;94836.41;5092939;28;1127;-50
2022/06/08 07:37:00;;;;;;;;;;;;;;;20.60;71.77;94834.00;5093028;28;1051;-51
2022/06/08 07:39:26;;;;;;;;;;;;;;;20.59;73.09;94842.34;5093349;28;1011;-50
2022/06/08 07:41:53;;;;;;;;;;;;;;;20.51;71.51;94840.78;5092985;28;1098;-50
2022/06/08 07:44:19;;;;;;;;;;;;;;;20.56;71.61;94845.50;5092852;28;2001;-51
2022/06/08 07:46:46;;;;;;;;;;;;;;;20.46;73.89;94840.63;5093255;28;968;-51
2022/06/08 07:51:59;;;;;;;;;;;;;;;20.83;71.69;94838.66;5093321;28;1040;-50
2022/06/08 07:54:26;;;;;;;;;;;;;;;20.72;72.15;94830.50;5092291;28;1277;-51
2022/06/08 07:56:53;;;;;;;;;;;;;;;20.65;72.18;94836.00;5092948;28;1043;-55
2022/06/08 07:59:22;;;;;;;;;;;;;;;20.85;72.17;94835.72;5093064;28;1044;-51
2022/06/08 08:01:48;;;;;;;;;;;;;;;20.88;72.76;94837.13;5094636;28;1036;-50
2022/06/08 08:04:14;;;;;;;;;;;;;;;20.86;72.98;94838.19;5096602;28;1977;-51
2022/06/08 08:06:40;;;;;;;;;;;;;;;20.90;73.82;94835.00;5096688;28;1157;-50
2022/06/08 08:09:13;;;;;;;;;;;;;;;20.97;75.41;94822.97;5097131;28;1982;-51
2022/06/08 08:11:40;;;;;;;;;;;;;;;21.12;74.07;94810.81;5096650;28;1020;-51
2022/06/08 08:14:06;;;;;;;;;;;;;;;21.22;74.47;94808.34;5096605;28;1973;-51
2022/06/08 08:16:32;;;;;;;;;;;;;;;21.47;73.22;94816.28;5096993;28;1020;-51
2022/06/08 08:18:59;;;;;;;;;;;;;;;21.62;70.82;94803.00;5096580;28;1020;-51
2022/06/08 08:21:25;;;;;;;;;;;;;;;22.09;67.69;94806.72;5096581;28;1106;-51
2022/06/08 08:23:51;;;;;;;;;;;;;;;21.95;67.93;94801.56;5096244;28;1090;-51
2022/06/08 08:26:18;;;;;;;;;;;;;;;21.86;67.44;94799.47;5096797;28;1946;-51
2022/06/08 08:28:44;;;;;;;;;;;;;;;21.78;67.57;94806.09;5096335;28;1032;-51
2022/06/08 08:31:10;;;;;;;;;;;;;;;21.86;68.39;94791.28;5096426;28;1024;-51
2022/06/08 08:33:36;;;;;;;;;;;;;;;21.92;68.72;94796.59;5096104;28;1080;-51
2022/06/08 08:36:02;;;;;;;;;;;;;;;21.95;68.69;94795.25;5096667;28;1183;-51
2022/06/08 08:38:29;;;;;;;;;;;;;;;21.92;67.67;94791.13;5096011;28;1080;-51
2022/06/08 08:40:57;;;;;;;;;;;;;;;21.94;68.35;94793.63;5096371;28;1107;-51
2022/06/08 08:43:27;;;;;;;;;;;;;;;21.81;69.30;94790.09;5094542;28;1051;-51
2022/06/08 08:45:59;;;;;;;;;;;;;;;21.71;69.54;94789.06;5096032;28;1905;-51
2022/06/08 08:48:28;;;;;;;;;;;;;;;21.63;68.08;94788.38;5096276;28;970;-51
2022/06/08 08:51:01;;;;;;;;;;;;;;;21.64;71.06;94773.72;5096295;28;1040;-51
2022/06/08 08:53:50;;;;;;;;;;;;;;;21.58;69.32;94782.00;5095659;28;1084;-51
2022/06/08 08:56:20;;;;;;;;;;;;;;;21.36;70.03;94776.28;5067114;28;1416;-51
2022/06/08 08:58:48;;;;;;;;;;;;;;;21.41;70.35;94770.97;5095942;28;1132;-51
2022/06/08 09:01:20;;;;;;;;;;;;;;;21.22;67.16;94767.56;5095954;28;1083;-51
2022/06/08 09:03:49;;;;;;;;;;;;;;;21.15;67.83;94769.56;5095665;28;968;-50
2022/06/08 09:06:17;;;;;;;;;;;;;;;21.31;69.74;94768.03;5105819;28;1910;-51
2022/06/08 09:08:46;;;;;;;;;;;;;;;21.43;68.70;94766.13;5116008;28;991;-51
2022/06/08 09:11:14;;;;;;;;;;;;;;;21.36;69.62;94771.69;5116027;28;1011;-51
2022/06/08 09:13:43;;;;;;;;;;;;;;;21.53;68.73;94774.56;5111330;28;1059;-50
2022/06/08 09:16:09;;;;;;;;;;;;;;;21.63;67.42;94773.94;5095642;28;1032;-50
2022/06/08 09:18:39;;;;;;;;;;;;;;;21.68;67.92;94765.06;5094448;28;966;-50
2022/06/08 09:21:26;;;;;;;;;;;;;;;21.77;68.21;94772.59;5095556;28;1013;-50
2022/06/08 09:24:00;;;;;;;;;;;;;;;21.80;70.29;94776.75;5094828;28;1095;-50
2022/06/08 09:26:32;;;;;;;;;;;;;;;21.88;70.45;94789.97;5095269;28;1902;-50
2022/06/08 09:29:21;;;;;;;;;;;;;;;21.94;70.74;94778.13;5094991;28;1050;-50
2022/06/08 09:31:48;;;;;;;;;;;;;;;21.89;68.46;94778.00;5075177;28;1111;-50
2022/06/08 09:34:20;;;;;;;;;;;;;;;21.92;70.08;94780.25;5083253;28;1244;-50
2022/06/08 09:37:03;;;;;;;;;;;;;;;22.05;70.23;94786.50;5095326;28;1113;-50
2022/06/08 09:39:29;;;;;;;;;;;;;;;22.18;68.95;94781.59;5095124;28;1042;-50
2022/06/08 09:41:56;;;;;;;;;;;;;;;22.25;68.92;94788.78;5095125;28;1033;-50
2022/06/08 09:44:25;;;;;;;;;;;;;;;22.29;67.62;94788.09;5094503;28;1910;-49
2022/06/08 09:52:49;;;;;;;;;;;;;;;22.38;66.88;94789.34;5094755;28;1098;-50
2022/06/08 09:55:31;;;;;;;;;;;;;;;22.40;69.22;94787.22;5094114;28;1111;-50
2022/06/08 09:57:57;;;;;;;;;;;;;;;22.30;69.84;94783.47;5095150;28;966;-50
2022/06/08 10:00:27;;;;;;;;;;;;;;;22.30;69.99;94778.03;5094754;28;1012;-50
2022/06/08 10:03:31;;;;;;;;;;;;;;;22.34;69.94;94769.13;5095109;28;1070;-50
2022/06/08 10:06:16;;;;;;;;;;;;;;;22.34;69.77;94760.13;5044558;28;1988;-51
2022/06/08 10:09:02;;;;;;;;;;;;;;;22.55;69.17;94755.88;5032037;28;1041;-50
2022/06/08 10:11:38;;;;;;;;;;;;;;;22.66;67.15;94756.88;5063139;28;1062;-52
2022/06/08 10:14:15;;;;;;;;;;;;;;;22.72;69.09;94755.88;5080083;28;1029;-50
2022/06/08 10:16:44;;;;;;;;;;;;;;;22.75;68.61;94758.94;5094497;28;964;-50
2022/06/08 10:19:14;;;;;;;;;;;;;;;22.96;68.92;94751.94;5094225;28;1096;-50
2022/06/08 10:21:42;;;;;;;;;;;;;;;23.06;67.70;94753.22;5094510;28;996;-50
2022/06/08 10:24:34;;;;;;;;;;;;;;;23.14;67.30;94752.78;5091942;28;1060;-50
2022/06/08 10:27:11;;;;;;;;;;;;;;;23.22;66.87;94746.91;5090701;28;1621;-52
2022/06/08 10:29:43;;;;;;;;;;;;;;;23.31;67.28;94742.66;5094062;28;1088;-51
2022/06/08 10:32:24;;;;;;;;;;;;;;;23.42;67.42;94740.91;5094388;28;1979;-51
2022/06/08 10:34:54;;;;;;;;;;;;;;;23.37;67.04;94747.13;5093697;28;1105;-51
2022/06/08 10:37:39;;;;;;;;;;;;;;;23.57;67.14;94745.75;5094084;28;1212;-51
2022/06/08 10:40:13;;;;;;;;;;;;;;;23.60;66.93;94742.53;5093967;28;1099;-50
2022/06/08 10:42:42;;;;;;;;;;;;;;;23.65;65.77;94741.78;5094007;28;1079;-51
2022/06/08 10:45:24;;;;;;;;;;;;;;;23.76;65.57;94740.81;5093662;28;1902;-51
2022/06/08 10:48:22;;;;;;;;;;;;;;;23.93;65.19;94736.16;5093820;28;1099;-51
2022/06/08 10:51:03;;;;;;;;;;;;;;;24.06;64.61;94734.13;5077673;28;2022;-50
2022/06/08 10:56:23;;;;;;;;;;;;;;;23.93;66.19;94724.41;5093906;28;1009;-50
2022/06/08 10:58:55;;;;;;;;;;;;;;;24.05;63.28;94727.81;5093706;28;1863;-50
2022/06/08 11:01:29;;;;;;;;;;;;;;;24.16;63.97;94715.09;5093816;28;1272;-50
2022/06/08 11:03:56;;;;;;;;;;;;;;;24.36;65.26;94709.84;5093651;28;1036;-50
2022/06/08 11:06:41;;;;;;;;;;;;;;;24.29;63.51;94698.31;5093425;28;1989;-50
2022/06/08 11:09:17;;;;;;;;;;;;;;;24.38;63.20;94698.66;5093560;28;1131;-50
2022/06/08 11:11:47;;;;;;;;;;;;;;;24.42;64.36;94686.13;5093768;28;1583;-50
2022/06/08 11:14:30;;;;;;;;;;;;;;;24.62;65.01;94682.78;5093288;28;1019;-49
2022/06/08 11:17:00;;;;;;;;;;;;;;;24.88;64.84;94674.78;5093534;28;1057;-49
2022/06/08 11:19:27;;;;;;;;;;;;;;;25.01;64.22;94682.53;5093322;28;1048;-49
2022/06/08 11:21:57;;;;;;;;;;;;;;;25.04;64.13;94676.56;5092180;28;1151;-50
2022/06/08 11:24:32;;;;;;;;;;;;;;;24.91;64.91;94683.28;5092607;28;1988;-50
2022/06/08 11:27:01;;;;;;;;;;;;;;;24.95;64.65;94680.88;5093658;28;2002;-50
2022/06/08 11:29:29;;;;;;;;;;;;;;;25.03;64.78;94671.34;5093508;28;1239;-50
2022/06/08 11:31:56;;;;;;;;;;;;;;;25.11;63.64;94665.38;5093283;28;1111;-50
2022/06/08 11:34:25;;;;;;;;;;;;;;;25.21;63.85;94667.34;5093148;28;1020;-50
2022/06/08 11:36:54;;;;;;;;;;;;;;;25.14;63.33;94648.44;5095378;28;1019;-50
2022/06/08 11:39:38;;;;;;;;;;;;;;;25.00;63.73;94658.19;5097899;28;1059;-50
2022/06/08 11:42:24;;;;;;;;;;;;;;;24.72;65.06;94652.00;5097362;28;1115;-50
2022/06/08 11:44:54;;;;;;;;;;;;;;;24.52;66.63;94648.00;5097325;28;1930;-50
2022/06/08 11:47:31;;;;;;;;;;;;;;;24.49;65.85;94645.78;5097756;28;1027;-49
2022/06/08 11:50:02;;;;;;;;;;;;;;;24.47;65.51;94645.22;5097281;28;972;-50
2022/06/08 11:52:31;;;;;;;;;;;;;;;24.45;66.21;94639.16;5097637;28;948;-50
2022/06/08 11:55:02;;;;;;;;;;;;;;;24.60;66.98;94635.75;5096759;28;1302;-50
2022/06/08 11:57:31;;;;;;;;;;;;;;;24.64;67.70;94625.13;5095896;28;1024;-50
2022/06/08 11:59:59;;;;;;;;;;;;;;;24.69;65.81;94626.00;5097271;28;952;-50
2022/06/08 12:02:36;;;;;;;;;;;;;;;24.59;65.84;94620.47;5095209;28;1702;-50
2022/06/08 12:05:04;;;;;;;;;;;;;;;24.72;66.77;94620.00;5096482;28;1930;-50
2022/06/08 12:07:47;;;;;;;;;;;;;;;24.69;65.40;94617.78;5074993;28;1689;-50
2022/06/08 12:10:20;;;;;;;;;;;;;;;24.75;66.91;94610.44;5076484;28;1586;-50
2022/06/08 12:12:48;;;;;;;;;;;;;;;24.74;66.51;94598.69;5076432;28;964;-50
2022/06/08 12:15:30;;;;;;;;;;;;;;;24.74;65.97;94593.22;5074749;28;1639;-50
2022/06/08 12:18:07;;;;;;;;;;;;;;;24.77;66.54;94591.06;5076232;28;1557;-50
2022/06/08 12:20:36;;;;;;;;;;;;;;;24.77;66.58;94588.31;5075156;28;1264;-50
2022/06/08 12:23:03;;;;;;;;;;;;;;;24.71;66.79;94585.56;5076370;28;1048;-50
2022/06/08 12:25:30;;;;;;;;;;;;;;;24.65;64.82;94592.06;5089624;28;1930;-50
2022/06/08 12:28:09;;;;;;;;;;;;;;;24.58;66.74;94579.72;5096661;28;1652;-50
2022/06/08 12:30:43;;;;;;;;;;;;;;;24.82;66.47;94588.38;5096423;28;1122;-50
2022/06/08 12:33:18;;;;;;;;;;;;;;;25.01;65.91;94592.28;5096505;28;1869;-49
2022/06/08 12:36:01;;;;;;;;;;;;;;;25.27;65.46;94589.69;5095653;28;1681;-49
2022/06/08 12:38:29;;;;;;;;;;;;;;;25.44;65.69;94593.09;5095042;28;940;-49
2022/06/08 12:40:58;;;;;;;;;;;;;;;25.67;64.39;94588.22;5094635;28;1681;-49
2022/06/08 12:43:34;;;;;;;;;;;;;;;25.64;63.62;94584.09;5095907;28;1040;-49
2022/06/08 12:46:15;;;;;;;;;;;;;;;25.75;66.58;94587.69;5096006;28;1985;-49
2022/06/08 12:48:44;;;;;;;;;;;;;;;25.70;64.52;94577.53;5094428;28;1098;-50
2022/06/08 12:51:30;;;;;;;;;;;;;;;25.57;66.26;94569.03;5094620;28;1484;-50
2022/06/08 12:53:57;;;;;;;;;;;;;;;25.11;63.83;94578.66;5095183;28;1582;-51
2022/06/08 12:56:23;;;;;;;;;;;;;;;24.78;63.12;94574.41;5095455;28;1559;-50
2022/06/08 12:58:50;;;;;;;;;;;;;;;24.67;64.71;94584.44;5095820;28;1549;-50
2022/06/08 13:01:18;;;;;;;;;;;;;;;24.60;63.57;94577.56;5094596;28;1118;-50
2022/06/08 13:03:44;;;;;;;;;;;;;;;24.52;64.28;94576.94;5095848;28;1032;-50
2022/06/08 13:06:11;;;;;;;;;;;;;;;24.54;64.38;94585.72;5105040;28;1905;-50
2022/06/08 13:08:37;;;;;;;;;;;;;;;24.41;62.36;94588.84;5114856;28;1506;-50
2022/06/08 13:11:06;;;;;;;;;;;;;;;24.34;62.86;94586.34;5111959;28;1102;-50
2022/06/08 13:13:33;;;;;;;;;;;;;;;24.26;64.46;94577.81;5095732;28;1011;-50
2022/06/08 13:16:01;;;;;;;;;;;;;;;24.17;64.44;94585.69;5094110;28;2761;-50
2022/06/08 13:18:28;;;;;;;;;;;;;;;24.20;64.50;94587.88;5095235;28;1044;-50
2022/06/08 13:20:56;;;;;;;;;;;;;;;24.22;64.24;94590.34;5095280;28;1046;-50
2022/06/08 13:23:25;;;;;;;;;;;;;;;24.16;64.64;94590.28;5093554;28;1021;-50
2022/06/08 13:25:52;;;;;;;;;;;;;;;24.16;64.36;94592.22;5093645;28;1906;-49
2022/06/08 13:28:21;;;;;;;;;;;;;;;24.05;68.07;94594.00;5094811;28;1077;-50
2022/06/08 13:30:49;;;;;;;;;;;;;;;23.68;72.20;94599.38;5095371;28;1068;-50